FR-0224 weather

Flaine-Hiver Heliport
Flaine, Auvergne-Rhône-Alpes, France

Public forecast

Using degrees Celsius for public forecast. Weather courtesy of forecast.io.

Closest aviation weather report (METAR) to Flaine-Hiver Heliport

Closest report is Annecy-Haute-Savoie-Mont Blanc Airport, 24.8 nm (45.9 km) W. Retrieved 2020/01/27 17:30 UTC (26 minutes ago):

LFLP 271730Z AUTO 20005KT 9999 -RA BKN037 BKN043 OVC050 07/04 Q1014 TEMPO SHRA

Closest aviation forecast (TAF) to Flaine-Hiver Heliport

Closest forecast is Annecy-Haute-Savoie-Mont Blanc Airport, 24.8 nm (45.9 km) W. Retrieved 2020/01/27 15:00 UTC (3 hours ago):

TAF LFLP 271400Z 2715/2815 22008KT CAVOK BECMG 2715/2717 BKN050 TEMPO 2717/2806 6000 SHRA TEMPO 2802/2808 20015G25KT TEMPO 2808/2815 22018G30KT 6000 SHRA SCT025TCU OVC025